createdAt,value
2023-04-29T00:00:43.596Z,61.80
2023-04-29T00:01:45.770Z,63.54
2023-04-29T00:02:47.966Z,62.78
2023-04-29T00:03:50.385Z,61.70
2023-04-29T00:04:52.945Z,60.53
2023-04-29T00:05:55.283Z,61.52
2023-04-29T00:06:57.500Z,60.12
2023-04-29T00:07:59.410Z,60.38
2023-04-29T00:09:01.328Z,61.43
2023-04-29T00:10:03.592Z,62.64
2023-04-29T00:11:05.450Z,62.26
2023-04-29T00:12:07.699Z,61.46
2023-04-29T00:13:09.893Z,62.21
2023-04-29T00:14:11.778Z,60.80
2023-04-29T00:15:13.671Z,60.32
2023-04-29T00:16:15.579Z,60.97
2023-04-29T00:17:18.298Z,60.12
2023-04-29T00:18:20.161Z,57.96
2023-04-29T00:19:22.118Z,58.53
2023-04-29T00:20:24.053Z,58.37
2023-04-29T00:21:27.454Z,58.83
2023-04-29T00:22:30.104Z,58.11
2023-04-29T00:23:36.080Z,58.67
2023-04-29T00:24:37.959Z,58.23
2023-04-29T00:25:40.000Z,58.32
2023-04-29T00:26:41.877Z,58.56
2023-04-29T00:27:44.104Z,58.94
2023-04-29T00:28:45.964Z,58.24
2023-04-29T00:29:47.846Z,59.24
2023-04-29T00:30:49.797Z,58.42
2023-04-29T00:31:51.775Z,58.86
2023-04-29T00:32:55.167Z,59.20
2023-04-29T00:33:57.458Z,59.65
2023-04-29T00:34:59.313Z,58.91
2023-04-29T00:36:02.179Z,59.08
2023-04-29T00:37:04.124Z,59.29
2023-04-29T00:38:06.426Z,59.43
2023-04-29T00:39:08.315Z,59.35
2023-04-29T00:40:10.668Z,59.49
2023-04-29T00:41:13.250Z,60.15
2023-04-29T00:42:15.098Z,59.28
2023-04-29T00:43:17.217Z,58.94
2023-04-29T00:44:19.201Z,59.06
2023-04-29T00:45:21.086Z,58.83
2023-04-29T00:46:23.196Z,59.63
2023-04-29T00:47:25.118Z,59.05
2023-04-29T00:48:27.619Z,60.02
2023-04-29T00:49:29.593Z,59.96
2023-04-29T00:50:31.617Z,59.60
2023-04-29T00:51:34.456Z,59.59
2023-04-29T00:52:38.444Z,59.39
2023-04-29T00:53:42.252Z,59.19
2023-04-29T00:54:44.734Z,58.70
2023-04-29T00:55:48.256Z,58.74
2023-04-29T00:56:51.160Z,58.58
2023-04-29T00:57:53.148Z,58.53
2023-04-29T00:58:55.482Z,57.96
2023-04-29T00:59:58.935Z,58.33
2023-04-29T01:01:04.336Z,58.91
2023-04-29T01:02:06.647Z,59.36
2023-04-29T01:03:09.319Z,59.74
2023-04-29T01:04:11.693Z,59.25
2023-04-29T01:05:15.177Z,59.52
2023-04-29T01:06:44.656Z,59.22
2023-04-29T01:07:59.354Z,60.30
2023-04-29T01:09:39.919Z,61.04
2023-04-29T01:10:53.232Z,60.40
2023-04-29T01:12:31.722Z,60.95
2023-04-29T01:13:49.968Z,61.25
2023-04-29T01:15:11.117Z,60.69
2023-04-29T01:16:23.429Z,61.63
2023-04-29T01:17:29.909Z,61.45
2023-04-29T01:18:49.926Z,61.34
2023-04-29T01:19:56.018Z,61.46
2023-04-29T01:20:59.732Z,61.45
2023-04-29T01:22:02.062Z,61.77
2023-04-29T01:23:05.065Z,61.90
2023-04-29T01:24:07.024Z,61.78
2023-04-29T01:25:10.051Z,62.01
2023-04-29T01:26:17.286Z,61.74
2023-04-29T01:27:25.153Z,61.59
2023-04-29T01:28:48.854Z,61.34
2023-04-29T01:30:12.933Z,62.02
2023-04-29T01:31:46.885Z,61.84
2023-04-29T01:33:21.661Z,61.69
2023-04-29T01:34:48.376Z,61.90
2023-04-29T01:36:17.957Z,62.14
2023-04-29T01:37:33.932Z,62.10
2023-04-29T01:38:45.035Z,61.92
2023-04-29T01:39:55.139Z,62.68
2023-04-29T01:41:10.960Z,62.41
2023-04-29T01:42:31.076Z,62.93
2023-04-29T01:43:37.439Z,63.55
2023-04-29T01:44:42.642Z,63.57
2023-04-29T01:45:45.090Z,63.57
2023-04-29T01:46:54.368Z,63.12
2023-04-29T01:47:59.355Z,62.84
2023-04-29T01:49:01.832Z,62.74
2023-04-29T01:50:04.344Z,62.98
2023-04-29T01:51:07.229Z,63.36
2023-04-29T01:52:09.314Z,63.59
2023-04-29T01:53:11.517Z,63.00
2023-04-29T01:54:13.408Z,62.78
2023-04-29T01:55:16.904Z,62.97
2023-04-29T01:56:19.748Z,63.71
2023-04-29T01:57:21.707Z,63.13
2023-04-29T01:58:24.053Z,62.96
2023-04-29T01:59:26.892Z,62.97
2023-04-29T02:00:29.247Z,63.29
2023-04-29T02:01:31.836Z,61.83
2023-04-29T02:02:33.921Z,62.28
2023-04-29T02:03:39.193Z,62.16
2023-04-29T02:04:43.014Z,62.26
2023-04-29T02:05:46.064Z,62.36
2023-04-29T02:06:48.347Z,60.33
2023-04-29T02:07:52.443Z,60.21
2023-04-29T02:08:54.844Z,61.21
2023-04-29T02:09:56.872Z,61.60
2023-04-29T02:11:00.430Z,61.42
2023-04-29T02:12:04.626Z,60.41
2023-04-29T02:13:06.523Z,60.94
2023-04-29T02:14:08.490Z,60.74
2023-04-29T02:15:10.536Z,60.60
2023-04-29T02:16:14.200Z,60.54
2023-04-29T02:17:16.890Z,60.81
2023-04-29T02:18:19.258Z,61.18
2023-04-29T02:19:22.333Z,61.13
2023-04-29T02:20:26.169Z,61.19
2023-04-29T02:21:28.076Z,61.13
2023-04-29T02:22:30.296Z,60.78
2023-04-29T02:23:32.425Z,61.18
2023-04-29T02:24:34.326Z,60.80
2023-04-29T02:25:36.465Z,60.81
2023-04-29T02:26:38.389Z,60.90
2023-04-29T02:27:40.599Z,60.79
2023-04-29T02:28:42.657Z,60.76
2023-04-29T02:29:44.545Z,60.27
2023-04-29T02:30:46.663Z,60.65
2023-04-29T02:31:48.579Z,60.39
2023-04-29T02:32:51.466Z,60.27
2023-04-29T02:33:54.286Z,59.69
2023-04-29T02:34:56.256Z,59.90
2023-04-29T02:35:59.748Z,60.03
2023-04-29T02:37:01.778Z,59.79
2023-04-29T02:38:03.930Z,60.68
2023-04-29T02:39:05.844Z,60.71
2023-04-29T02:40:08.314Z,60.58
2023-04-29T02:41:10.313Z,60.41
2023-04-29T02:42:12.264Z,61.32
2023-04-29T02:43:14.432Z,60.96
2023-04-29T02:44:16.362Z,60.62
2023-04-29T02:45:18.459Z,60.60
2023-04-29T02:46:20.671Z,60.24
2023-04-29T02:47:22.760Z,59.97
2023-04-29T02:48:24.942Z,60.35
2023-04-29T02:49:27.954Z,59.98
2023-04-29T02:50:29.869Z,60.08
2023-04-29T02:51:31.864Z,60.29
2023-04-29T02:52:33.750Z,60.21
2023-04-29T02:53:35.993Z,59.96
2023-04-29T02:54:37.991Z,60.57
2023-04-29T02:55:40.421Z,60.49
2023-04-29T02:56:43.005Z,60.35
2023-04-29T02:57:44.917Z,60.46
2023-04-29T02:58:47.355Z,60.21
2023-04-29T02:59:49.461Z,60.19
2023-04-29T03:00:51.499Z,60.42
2023-04-29T03:01:54.674Z,60.41
2023-04-29T03:02:57.733Z,60.39
2023-04-29T03:04:00.821Z,60.14
2023-04-29T03:05:03.680Z,59.91
2023-04-29T03:06:06.038Z,59.99
2023-04-29T03:07:08.104Z,59.40
2023-04-29T03:08:10.384Z,59.00
2023-04-29T03:09:14.310Z,58.79
2023-04-29T03:10:19.250Z,58.01
2023-04-29T03:11:24.615Z,58.57
2023-04-29T03:12:26.520Z,58.38
2023-04-29T03:13:28.440Z,58.98
2023-04-29T03:14:30.767Z,58.42
2023-04-29T03:15:33.467Z,58.44
2023-04-29T03:16:35.650Z,58.29
2023-04-29T03:17:37.872Z,58.66
2023-04-29T03:18:40.780Z,58.94
2023-04-29T03:19:42.958Z,58.41
2023-04-29T03:20:44.824Z,58.67
2023-04-29T03:21:46.725Z,59.06
2023-04-29T03:22:48.711Z,58.96
2023-04-29T03:23:50.630Z,58.70
2023-04-29T03:24:53.462Z,58.33
2023-04-29T03:25:56.014Z,58.10
2023-04-29T03:27:00.226Z,57.38
2023-04-29T03:28:02.112Z,57.74
2023-04-29T03:29:06.237Z,57.53
2023-04-29T03:30:09.246Z,57.92
2023-04-29T03:31:12.604Z,57.42
2023-04-29T03:32:14.519Z,57.00
2023-04-29T03:33:17.152Z,57.43
2023-04-29T03:34:19.818Z,57.54
2023-04-29T03:35:22.834Z,56.92
2023-04-29T03:36:25.831Z,56.04
2023-04-29T03:37:28.048Z,56.28
2023-04-29T03:38:31.058Z,55.98
2023-04-29T03:39:33.008Z,56.08
2023-04-29T03:40:35.389Z,56.54
2023-04-29T03:41:37.317Z,56.25
2023-04-29T03:42:39.229Z,56.03
2023-04-29T03:43:41.693Z,56.44
2023-04-29T03:44:43.610Z,56.39
2023-04-29T03:45:45.873Z,55.32
2023-04-29T03:46:48.774Z,55.28
2023-04-29T03:47:50.760Z,55.59
2023-04-29T03:48:56.028Z,55.59
2023-04-29T03:49:58.047Z,55.46
2023-04-29T03:51:00.494Z,55.73
2023-04-29T03:52:04.740Z,55.07
2023-04-29T03:53:06.767Z,54.99
2023-04-29T03:54:09.988Z,55.24
2023-04-29T03:55:12.773Z,56.02
2023-04-29T03:56:16.942Z,55.79
2023-04-29T03:57:19.409Z,55.45
2023-04-29T03:58:21.470Z,55.67
2023-04-29T03:59:23.380Z,55.56
2023-04-29T04:00:31.232Z,55.98
2023-04-29T04:01:34.152Z,57.50
2023-04-29T04:02:36.388Z,55.78
2023-04-29T04:03:38.773Z,55.76
2023-04-29T04:04:41.541Z,54.76
2023-04-29T04:05:44.272Z,55.27
2023-04-29T04:06:51.533Z,54.89
2023-04-29T04:07:54.033Z,54.85
2023-04-29T04:08:57.986Z,54.93
2023-04-29T04:10:00.220Z,54.74
2023-04-29T04:11:05.013Z,53.61
2023-04-29T04:12:07.637Z,55.96
2023-04-29T04:13:09.671Z,53.63
2023-04-29T04:14:11.900Z,53.00
2023-04-29T04:15:14.125Z,53.57
2023-04-29T04:16:16.186Z,53.34
2023-04-29T04:17:18.382Z,53.02
2023-04-29T04:18:21.062Z,52.99
2023-04-29T04:19:23.000Z,52.78
2023-04-29T04:20:24.995Z,52.14
2023-04-29T04:21:27.604Z,51.71
2023-04-29T04:22:30.385Z,52.02
2023-04-29T04:23:34.113Z,51.55
2023-04-29T04:24:39.839Z,51.49
2023-04-29T04:25:48.794Z,51.70
2023-04-29T04:26:51.593Z,50.50
2023-04-29T04:27:54.440Z,50.90
2023-04-29T04:28:57.819Z,51.58
2023-04-29T04:30:01.029Z,52.14
2023-04-29T04:31:03.945Z,51.52
2023-04-29T04:32:06.022Z,51.65
2023-04-29T04:33:13.399Z,51.44
2023-04-29T04:34:15.469Z,52.04
2023-04-29T04:35:23.282Z,51.22
2023-04-29T04:36:26.620Z,51.32
2023-04-29T04:37:29.669Z,51.13
2023-04-29T04:38:32.992Z,51.76
2023-04-29T04:39:36.588Z,52.64
2023-04-29T04:40:42.109Z,53.05
2023-04-29T04:41:45.223Z,53.29
2023-04-29T04:42:47.361Z,53.05
2023-04-29T04:43:50.270Z,53.17
2023-04-29T04:44:54.371Z,53.44
2023-04-29T04:45:59.547Z,53.88
2023-04-29T04:47:02.272Z,53.62
2023-04-29T04:48:05.610Z,52.95
2023-04-29T04:49:08.239Z,53.67
2023-04-29T04:50:12.322Z,54.97
2023-04-29T04:51:14.491Z,54.90
2023-04-29T04:52:21.403Z,56.54
2023-04-29T04:53:23.814Z,56.31
2023-04-29T04:54:26.376Z,56.48
2023-04-29T04:55:28.839Z,56.43
2023-04-29T04:56:31.451Z,56.21
2023-04-29T04:57:33.422Z,57.39
2023-04-29T04:58:35.821Z,57.44
2023-04-29T04:59:38.754Z,57.42
2023-04-29T05:00:44.744Z,58.03
2023-04-29T05:01:47.072Z,58.06
2023-04-29T05:02:49.551Z,58.24
2023-04-29T05:03:51.778Z,58.22
2023-04-29T05:04:54.716Z,57.42
2023-04-29T05:05:58.404Z,57.80
2023-04-29T05:07:00.669Z,57.59
2023-04-29T05:08:04.231Z,57.90
2023-04-29T05:09:06.788Z,57.67
2023-04-29T05:10:10.663Z,55.71
2023-04-29T05:11:17.833Z,56.57
2023-04-29T05:12:20.024Z,57.45
2023-04-29T05:13:22.026Z,57.73
2023-04-29T05:14:24.050Z,57.86
2023-04-29T05:15:27.452Z,58.42
2023-04-29T05:16:30.638Z,58.06
2023-04-29T05:17:32.946Z,58.59
2023-04-29T05:18:35.118Z,57.90
2023-04-29T05:19:37.161Z,58.45
2023-04-29T05:20:43.676Z,58.48
2023-04-29T05:21:45.564Z,57.66
2023-04-29T05:22:47.489Z,55.40
2023-04-29T05:23:49.971Z,54.96
2023-04-29T05:24:52.945Z,54.88
2023-04-29T05:25:55.702Z,55.42
2023-04-29T05:26:57.574Z,55.81
2023-04-29T05:27:59.448Z,55.19
2023-04-29T05:29:01.954Z,54.38
2023-04-29T05:30:04.679Z,53.85
2023-04-29T05:31:08.347Z,54.77
2023-04-29T05:32:11.534Z,53.70
2023-04-29T05:33:14.064Z,54.07
2023-04-29T05:34:16.288Z,54.22
2023-04-29T05:35:18.284Z,53.04
2023-04-29T05:36:20.808Z,54.48
2023-04-29T05:37:22.664Z,54.82
2023-04-29T05:38:29.271Z,54.45
2023-04-29T05:39:32.341Z,54.58
2023-04-29T05:40:35.812Z,53.33
2023-04-29T05:41:41.129Z,54.23
2023-04-29T05:42:43.736Z,54.73
2023-04-29T05:43:46.703Z,54.63
2023-04-29T05:44:48.875Z,53.53
2023-04-29T05:45:50.825Z,53.58
2023-04-29T05:46:52.983Z,54.04
2023-04-29T05:47:55.056Z,54.70
2023-04-29T05:48:57.705Z,55.11
2023-04-29T05:50:00.844Z,55.14
2023-04-29T05:51:03.366Z,55.10
2023-04-29T05:52:06.726Z,55.27
2023-04-29T05:53:09.269Z,55.59
2023-04-29T05:54:11.912Z,55.84
2023-04-29T05:55:14.028Z,56.30
2023-04-29T05:56:16.818Z,56.26
2023-04-29T05:57:19.082Z,56.08
2023-04-29T05:58:21.332Z,56.12
2023-04-29T05:59:23.304Z,56.33
2023-04-29T06:00:25.364Z,56.08
2023-04-29T06:01:29.222Z,55.81
2023-04-29T06:02:32.434Z,56.19
2023-04-29T06:03:34.733Z,55.69
2023-04-29T06:04:38.276Z,55.10
2023-04-29T06:05:41.426Z,54.47
2023-04-29T06:06:44.542Z,55.35
2023-04-29T06:07:47.142Z,54.49
2023-04-29T06:08:50.459Z,55.23
2023-04-29T06:09:52.913Z,54.07
2023-04-29T06:10:54.955Z,53.76
2023-04-29T06:11:57.945Z,53.85
2023-04-29T06:13:00.180Z,53.55
2023-04-29T06:14:02.363Z,53.87
2023-04-29T06:15:05.147Z,54.23
2023-04-29T06:16:07.871Z,53.32
2023-04-29T06:17:11.125Z,53.92
2023-04-29T06:18:13.338Z,53.55
2023-04-29T06:19:15.371Z,54.12
2023-04-29T06:20:18.254Z,53.68
2023-04-29T06:21:20.267Z,53.18
2023-04-29T06:22:22.616Z,52.96
2023-04-29T06:23:24.623Z,52.41
2023-04-29T06:24:26.745Z,52.07
2023-04-29T06:25:28.888Z,53.10
2023-04-29T06:26:30.894Z,53.43
2023-04-29T06:27:33.509Z,52.51
2023-04-29T06:28:35.488Z,53.28
2023-04-29T06:29:37.553Z,53.24
2023-04-29T06:30:39.620Z,53.21
2023-04-29T06:31:41.605Z,53.53
2023-04-29T06:32:44.239Z,53.81
2023-04-29T06:33:46.719Z,53.92
2023-04-29T06:34:49.117Z,54.64
2023-04-29T06:35:51.845Z,55.12
2023-04-29T06:36:54.464Z,55.29
2023-04-29T06:37:57.365Z,55.27
2023-04-29T06:39:00.954Z,55.29
2023-04-29T06:40:04.487Z,54.23
2023-04-29T06:41:07.889Z,54.52
2023-04-29T06:42:11.105Z,55.13
2023-04-29T06:43:14.696Z,55.42
2023-04-29T06:44:19.402Z,55.55
2023-04-29T06:45:21.510Z,55.21
2023-04-29T06:46:23.889Z,55.51
2023-04-29T06:47:26.448Z,55.91
2023-04-29T06:48:29.709Z,56.07
2023-04-29T06:49:31.863Z,56.78
2023-04-29T06:50:34.257Z,57.09
2023-04-29T06:51:38.017Z,57.08
2023-04-29T06:52:39.914Z,56.83
2023-04-29T06:53:42.138Z,56.88
2023-04-29T06:54:44.039Z,57.03
2023-04-29T06:55:46.658Z,56.91
2023-04-29T06:56:48.798Z,57.37
2023-04-29T06:57:52.677Z,57.29
2023-04-29T06:58:54.835Z,57.13
2023-04-29T06:59:56.889Z,57.40
2023-04-29T07:00:59.827Z,57.61
2023-04-29T07:02:01.774Z,56.98
2023-04-29T07:03:03.835Z,57.26
2023-04-29T07:04:06.361Z,57.51
2023-04-29T07:05:08.754Z,57.62
2023-04-29T07:06:10.741Z,57.50
2023-04-29T07:07:12.585Z,57.49
2023-04-29T07:08:14.688Z,57.00
2023-04-29T07:09:16.947Z,57.75
2023-04-29T07:10:18.813Z,57.53
2023-04-29T07:11:22.013Z,57.40
2023-04-29T07:12:26.670Z,57.20
2023-04-29T07:13:29.225Z,57.05
2023-04-29T07:14:32.026Z,57.63
2023-04-29T07:15:35.474Z,58.18
2023-04-29T07:16:38.272Z,57.54
2023-04-29T07:17:45.160Z,57.22
2023-04-29T07:18:47.316Z,57.71
2023-04-29T07:19:49.830Z,57.88
2023-04-29T07:20:53.115Z,58.10
2023-04-29T07:21:55.054Z,57.93
2023-04-29T07:22:56.977Z,57.24
2023-04-29T07:24:02.375Z,57.64
2023-04-29T07:25:04.943Z,57.60
2023-04-29T07:26:15.679Z,57.16
2023-04-29T07:27:17.929Z,57.24
2023-04-29T07:28:19.782Z,57.71
2023-04-29T07:29:21.690Z,57.13
2023-04-29T07:30:24.428Z,56.50
2023-04-29T07:31:26.824Z,56.45
2023-04-29T07:32:31.927Z,56.46
2023-04-29T07:33:37.919Z,56.03
2023-04-29T07:34:40.252Z,56.24
2023-04-29T07:35:43.501Z,56.09
2023-04-29T07:36:46.048Z,55.47
2023-04-29T07:37:48.300Z,55.59
2023-04-29T07:38:50.167Z,54.60
2023-04-29T07:39:52.447Z,55.75
2023-04-29T07:40:54.690Z,54.11
2023-04-29T07:41:56.671Z,54.08
2023-04-29T07:42:58.767Z,54.54
2023-04-29T07:44:00.698Z,51.57
2023-04-29T07:45:02.577Z,49.85
2023-04-29T07:46:04.865Z,50.37
2023-04-29T07:47:07.045Z,51.04
2023-04-29T07:48:09.655Z,50.60
2023-04-29T07:49:11.653Z,50.42
2023-04-29T07:50:13.652Z,49.78
2023-04-29T07:51:15.983Z,49.57
2023-04-29T07:52:18.015Z,49.28
2023-04-29T07:53:19.913Z,49.21
2023-04-29T07:54:22.642Z,48.32
2023-04-29T07:55:24.540Z,48.71
2023-04-29T07:56:27.070Z,48.83
2023-04-29T07:57:29.088Z,49.34
2023-04-29T07:58:31.274Z,49.70
2023-04-29T07:59:34.448Z,49.05
2023-04-29T08:00:38.088Z,49.09
2023-04-29T08:01:43.690Z,48.81
2023-04-29T08:02:46.331Z,48.91
2023-04-29T08:03:48.829Z,48.43
2023-04-29T08:04:52.485Z,48.14
2023-04-29T08:05:56.406Z,48.48
2023-04-29T08:06:58.673Z,48.90
2023-04-29T08:08:00.536Z,49.39
2023-04-29T08:09:03.314Z,49.16
2023-04-29T08:10:05.966Z,49.25
2023-04-29T08:11:07.821Z,49.84
2023-04-29T08:12:12.732Z,50.64
2023-04-29T08:13:16.015Z,49.78
2023-04-29T08:14:17.976Z,49.67
2023-04-29T08:15:20.351Z,50.10
2023-04-29T08:16:22.348Z,50.28
2023-04-29T08:17:24.642Z,50.36
2023-04-29T08:18:26.647Z,49.71
2023-04-29T08:19:28.556Z,49.66
2023-04-29T08:20:30.494Z,50.54
2023-04-29T08:21:32.513Z,50.22
2023-04-29T08:22:34.786Z,49.72
2023-04-29T08:23:36.741Z,48.71
2023-04-29T08:24:38.698Z,48.70
2023-04-29T08:25:44.071Z,48.59
2023-04-29T08:26:46.063Z,49.22
2023-04-29T08:27:48.748Z,47.57
2023-04-29T08:28:50.757Z,47.80
2023-04-29T08:29:52.645Z,47.19
2023-04-29T08:30:55.416Z,47.79
2023-04-29T08:31:57.542Z,47.95
2023-04-29T08:32:59.999Z,47.86
2023-04-29T08:34:01.957Z,46.23
2023-04-29T08:35:04.149Z,46.78
2023-04-29T08:36:06.343Z,47.07
2023-04-29T08:37:08.321Z,47.19
2023-04-29T08:38:10.489Z,47.48
2023-04-29T08:39:12.446Z,46.47
2023-04-29T08:40:14.442Z,46.39
2023-04-29T08:41:16.966Z,47.26
2023-04-29T08:42:31.070Z,47.42
2023-04-29T08:43:37.301Z,46.83
2023-04-29T08:44:41.346Z,47.27
2023-04-29T08:45:44.022Z,47.13
2023-04-29T08:46:46.662Z,47.49
2023-04-29T08:47:49.630Z,46.07
2023-04-29T08:48:53.011Z,45.02
2023-04-29T08:49:55.181Z,45.29
2023-04-29T08:50:58.789Z,44.73
2023-04-29T08:52:00.855Z,44.58
2023-04-29T08:53:03.044Z,43.97
2023-04-29T08:54:05.258Z,43.89
2023-04-29T08:55:08.123Z,43.86
2023-04-29T08:56:16.665Z,44.38
2023-04-29T08:57:18.762Z,43.09
2023-04-29T08:58:22.173Z,44.13
2023-04-29T08:59:25.465Z,44.83
2023-04-29T09:00:27.809Z,44.73
2023-04-29T09:01:30.161Z,44.04
2023-04-29T09:02:32.800Z,44.22
2023-04-29T09:03:43.176Z,44.62
2023-04-29T09:04:57.991Z,44.24
2023-04-29T09:06:01.669Z,43.47
2023-04-29T09:07:06.047Z,44.20
2023-04-29T09:08:08.989Z,42.83
2023-04-29T09:09:11.881Z,43.84
2023-04-29T09:10:15.054Z,43.54
2023-04-29T09:11:17.298Z,43.44
2023-04-29T09:12:19.425Z,43.38
2023-04-29T09:13:29.621Z,43.88
2023-04-29T09:14:36.120Z,43.91
2023-04-29T09:15:41.433Z,44.16
2023-04-29T09:16:47.561Z,44.10
2023-04-29T09:17:49.948Z,44.52
2023-04-29T09:18:52.508Z,43.87
2023-04-29T09:19:57.064Z,44.22
2023-04-29T09:20:59.268Z,44.90
2023-04-29T09:22:07.317Z,43.92
2023-04-29T09:23:09.332Z,43.18
2023-04-29T09:24:11.233Z,43.31
2023-04-29T09:25:14.160Z,42.99
2023-04-29T09:26:17.001Z,43.14
2023-04-29T09:27:29.533Z,42.98
2023-04-29T09:28:31.775Z,43.62
2023-04-29T09:29:34.939Z,43.08
2023-04-29T09:30:45.920Z,43.01
2023-04-29T09:31:48.970Z,42.78
2023-04-29T09:33:08.747Z,42.85
2023-04-29T09:34:14.293Z,42.35
2023-04-29T09:35:27.393Z,42.41
2023-04-29T09:36:38.562Z,43.46
2023-04-29T09:37:41.859Z,44.38
2023-04-29T09:38:55.258Z,44.36
2023-04-29T09:39:57.245Z,42.79
2023-04-29T09:41:02.361Z,42.28
2023-04-29T09:42:04.548Z,42.56
2023-04-29T09:43:14.258Z,43.61
2023-04-29T09:44:16.689Z,44.15
2023-04-29T09:45:43.131Z,44.07
2023-04-29T09:46:58.982Z,44.58
2023-04-29T09:48:05.793Z,43.73
2023-04-29T09:49:27.996Z,44.58
2023-04-29T09:50:29.964Z,43.80
2023-04-29T09:51:34.764Z,43.06
2023-04-29T09:52:42.783Z,43.02
2023-04-29T09:53:45.285Z,43.19
2023-04-29T09:54:47.487Z,42.56
2023-04-29T09:56:05.372Z,42.29
2023-04-29T09:57:09.382Z,42.92
2023-04-29T09:58:40.253Z,43.11
2023-04-29T09:59:42.995Z,45.46
2023-04-29T10:00:45.217Z,47.07
2023-04-29T10:01:58.137Z,46.63
2023-04-29T10:03:02.372Z,45.98
2023-04-29T10:04:06.157Z,46.37
2023-04-29T10:05:10.496Z,46.64
2023-04-29T10:06:13.194Z,46.85
2023-04-29T10:07:17.472Z,46.11
2023-04-29T10:08:19.750Z,46.22
2023-04-29T10:09:23.687Z,45.52
2023-04-29T10:10:29.534Z,45.01
2023-04-29T10:11:32.311Z,45.30
2023-04-29T10:12:40.063Z,45.17
2023-04-29T10:13:44.282Z,44.72
2023-04-29T10:15:01.987Z,44.29
2023-04-29T10:16:25.541Z,45.16
2023-04-29T10:17:41.071Z,44.69
2023-04-29T10:18:52.142Z,45.43
2023-04-29T10:20:05.948Z,45.19
2023-04-29T10:21:11.678Z,44.63
2023-04-29T10:22:22.702Z,44.42
2023-04-29T10:23:25.685Z,44.70
2023-04-29T10:24:28.080Z,44.45
2023-04-29T10:25:30.625Z,44.51
2023-04-29T10:26:34.130Z,44.04
2023-04-29T10:27:37.937Z,43.96
2023-04-29T10:28:42.354Z,44.20
2023-04-29T10:29:45.255Z,44.36
2023-04-29T10:30:51.860Z,44.06
2023-04-29T10:31:55.932Z,43.34
2023-04-29T10:33:02.103Z,43.81
2023-04-29T10:34:04.116Z,43.62
2023-04-29T10:35:10.079Z,43.38
2023-04-29T10:36:12.968Z,43.58
2023-04-29T10:37:16.380Z,43.42
2023-04-29T10:38:29.396Z,44.62
2023-04-29T10:39:56.373Z,43.87
2023-04-29T10:41:03.992Z,44.80
2023-04-29T10:42:16.345Z,44.53
2023-04-29T10:43:24.309Z,44.82
2023-04-29T10:44:26.578Z,44.29
2023-04-29T10:45:35.178Z,43.72
2023-04-29T10:46:38.082Z,41.67
2023-04-29T10:47:40.047Z,42.25
2023-04-29T10:48:43.819Z,42.16
2023-04-29T10:50:04.327Z,42.01
2023-04-29T10:51:06.634Z,41.95
2023-04-29T10:52:09.122Z,42.22
2023-04-29T10:53:10.990Z,42.40
2023-04-29T10:54:15.240Z,42.30
2023-04-29T10:55:17.200Z,41.99
2023-04-29T10:56:19.069Z,41.19
2023-04-29T10:57:21.990Z,40.60
2023-04-29T10:58:41.406Z,40.64
2023-04-29T10:59:43.303Z,40.51
2023-04-29T11:00:45.198Z,40.89
2023-04-29T11:01:52.150Z,40.46
2023-04-29T11:02:58.769Z,40.82
2023-04-29T11:04:05.315Z,40.01
2023-04-29T11:05:12.600Z,40.96
2023-04-29T11:06:15.450Z,40.84
2023-04-29T11:07:30.034Z,40.55
2023-04-29T11:08:39.936Z,41.15
2023-04-29T11:09:41.848Z,41.49
2023-04-29T11:10:44.079Z,41.37
2023-04-29T11:11:55.345Z,41.01
2023-04-29T11:13:26.282Z,41.32
2023-04-29T11:14:51.709Z,42.56
2023-04-29T11:16:14.646Z,41.83
2023-04-29T11:17:19.900Z,41.03
2023-04-29T11:18:23.384Z,41.36
2023-04-29T11:19:34.656Z,41.10
2023-04-29T11:21:08.640Z,40.82
2023-04-29T11:22:21.148Z,41.35
2023-04-29T11:23:27.260Z,41.05
2023-04-29T11:24:30.444Z,41.72
2023-04-29T11:25:32.274Z,41.90
2023-04-29T11:26:35.935Z,41.79
2023-04-29T11:27:40.467Z,41.95
2023-04-29T11:28:43.572Z,42.67
2023-04-29T11:29:47.577Z,41.87
2023-04-29T11:30:51.482Z,41.62
2023-04-29T11:32:07.901Z,40.92
2023-04-29T11:33:09.924Z,41.06
2023-04-29T11:34:11.881Z,40.83
2023-04-29T11:35:14.996Z,40.43
2023-04-29T11:36:16.894Z,39.95
2023-04-29T11:37:27.155Z,39.88
2023-04-29T11:38:30.392Z,40.23
2023-04-29T11:39:36.223Z,41.41
2023-04-29T11:40:50.787Z,41.43
2023-04-29T11:41:52.893Z,40.76
2023-04-29T11:42:55.087Z,40.97
2023-04-29T11:43:58.683Z,40.78
2023-04-29T11:45:00.803Z,40.41
2023-04-29T11:46:02.776Z,39.99
2023-04-29T11:47:08.221Z,40.36
2023-04-29T11:48:10.469Z,41.04
2023-04-29T11:49:12.382Z,41.20
2023-04-29T11:50:17.792Z,40.99
2023-04-29T11:51:20.135Z,40.69
2023-04-29T11:52:22.048Z,40.60
2023-04-29T11:53:27.895Z,40.58
2023-04-29T11:54:30.783Z,40.64
2023-04-29T11:55:32.725Z,40.33
2023-04-29T11:56:37.774Z,39.43
2023-04-29T11:57:40.780Z,39.58
2023-04-29T11:58:44.368Z,39.66
2023-04-29T11:59:53.565Z,39.25
2023-04-29T12:00:55.529Z,38.54
2023-04-29T12:01:59.439Z,39.15
2023-04-29T12:03:02.052Z,39.41
2023-04-29T12:04:07.536Z,39.15
2023-04-29T12:05:10.315Z,38.89
2023-04-29T12:06:15.254Z,38.53
2023-04-29T12:07:20.547Z,38.91
2023-04-29T12:08:29.628Z,38.17
2023-04-29T12:09:42.691Z,37.86
2023-04-29T12:10:44.789Z,38.32
2023-04-29T12:11:47.164Z,38.50
2023-04-29T12:12:49.674Z,38.51
2023-04-29T12:13:51.858Z,38.42
2023-04-29T12:14:54.519Z,38.27
2023-04-29T12:15:58.392Z,38.39
2023-04-29T12:17:00.643Z,37.74
2023-04-29T12:18:03.071Z,37.62
2023-04-29T12:19:05.387Z,37.31
2023-04-29T12:20:10.708Z,37.67
2023-04-29T12:21:13.386Z,37.59
2023-04-29T12:22:15.283Z,37.40
2023-04-29T12:23:20.212Z,37.51
2023-04-29T12:24:22.209Z,37.66
2023-04-29T12:25:28.123Z,38.09
2023-04-29T12:26:31.406Z,37.68
2023-04-29T12:27:37.071Z,37.28
2023-04-29T12:28:42.173Z,36.87
2023-04-29T12:29:44.091Z,37.81
2023-04-29T12:30:49.674Z,37.78
2023-04-29T12:31:51.720Z,38.06
2023-04-29T12:32:54.072Z,37.45
2023-04-29T12:33:56.808Z,37.73
2023-04-29T12:34:58.657Z,37.09
2023-04-29T12:36:00.544Z,36.70
2023-04-29T12:37:02.821Z,37.07
2023-04-29T12:38:04.750Z,37.41
2023-04-29T12:39:10.300Z,37.46
2023-04-29T12:40:20.437Z,36.40
2023-04-29T12:41:37.635Z,36.12
2023-04-29T12:42:40.115Z,36.18
2023-04-29T12:43:42.631Z,35.93
2023-04-29T12:44:48.804Z,36.27
2023-04-29T12:45:54.185Z,35.75
2023-04-29T12:46:58.435Z,36.09
2023-04-29T12:48:02.496Z,35.82
2023-04-29T12:49:05.852Z,36.06
2023-04-29T12:50:08.527Z,36.96
2023-04-29T12:51:11.669Z,37.02
2023-04-29T12:52:14.326Z,37.40
2023-04-29T12:53:16.345Z,38.22
2023-04-29T12:54:18.447Z,37.61
2023-04-29T12:55:20.657Z,38.46
2023-04-29T12:56:22.637Z,38.40
2023-04-29T12:57:26.506Z,37.40
2023-04-29T12:58:32.237Z,36.86
2023-04-29T12:59:34.410Z,37.24
2023-04-29T13:00:37.973Z,37.43
2023-04-29T13:01:39.911Z,37.28
2023-04-29T13:02:42.113Z,38.01
2023-04-29T13:03:44.210Z,38.70
2023-04-29T13:04:46.398Z,39.06
2023-04-29T13:05:51.441Z,38.41
2023-04-29T13:07:00.100Z,38.50
2023-04-29T13:08:02.262Z,37.44
2023-04-29T13:09:04.411Z,37.78
2023-04-29T13:10:07.345Z,37.85
2023-04-29T13:11:09.530Z,37.55
2023-04-29T13:12:11.400Z,37.29
2023-04-29T13:13:13.338Z,37.37
2023-04-29T13:14:15.707Z,37.42
2023-04-29T13:15:17.697Z,37.28
2023-04-29T13:16:20.289Z,37.72
2023-04-29T13:17:22.337Z,37.42
2023-04-29T13:18:24.400Z,37.33
2023-04-29T13:19:41.215Z,37.04
2023-04-29T13:20:48.694Z,37.21
2023-04-29T13:21:50.975Z,37.41
2023-04-29T13:22:53.248Z,37.08
2023-04-29T13:23:55.135Z,35.53
2023-04-29T13:24:57.080Z,36.64
2023-04-29T13:25:59.083Z,37.59
2023-04-29T13:27:03.001Z,37.27
2023-04-29T13:28:07.883Z,37.05
2023-04-29T13:29:09.987Z,37.19
2023-04-29T13:30:12.129Z,36.17
2023-04-29T13:31:14.044Z,37.07
2023-04-29T13:32:18.246Z,35.91
2023-04-29T13:33:20.748Z,36.47
2023-04-29T13:34:22.678Z,36.87
2023-04-29T13:35:24.507Z,37.24
2023-04-29T13:36:28.195Z,38.39
2023-04-29T13:37:30.592Z,38.43
2023-04-29T13:38:32.542Z,36.90
2023-04-29T13:39:38.191Z,36.76
2023-04-29T13:40:45.876Z,36.67
2023-04-29T13:41:48.855Z,36.88
2023-04-29T13:42:59.655Z,37.37
2023-04-29T13:44:20.912Z,37.63
2023-04-29T13:45:29.479Z,38.04
2023-04-29T13:46:32.658Z,38.21
2023-04-29T13:47:34.872Z,37.89
2023-04-29T13:50:16.895Z,38.45